createdAt,value
2022-11-01T00:02:22.877Z,64.07
2022-11-01T00:07:26.130Z,64.03
2022-11-01T00:12:31.373Z,64.70
2022-11-01T00:17:36.278Z,64.09
2022-11-01T00:22:39.472Z,64.39
2022-11-01T00:27:42.969Z,64.13
2022-11-01T00:32:47.627Z,64.42
2022-11-01T00:37:50.932Z,64.07
2022-11-01T00:42:54.421Z,63.70
2022-11-01T00:47:59.818Z,63.01
2022-11-01T00:53:03.486Z,63.22
2022-11-01T00:58:06.913Z,62.84
2022-11-01T01:03:11.897Z,62.50
2022-11-01T01:08:15.209Z,61.90
2022-11-01T01:13:18.906Z,62.37
2022-11-01T01:18:23.833Z,61.93
2022-11-01T01:23:27.275Z,62.08
2022-11-01T01:28:30.580Z,62.20
2022-11-01T01:33:35.513Z,62.33
2022-11-01T01:38:38.779Z,61.61
2022-11-01T01:43:43.466Z,61.81
2022-11-01T01:48:52.826Z,62.12
2022-11-01T01:53:58.632Z,62.41
2022-11-01T01:59:05.738Z,61.45
2022-11-01T02:04:17.519Z,61.59
2022-11-01T02:09:21.860Z,61.98
2022-11-01T02:14:27.101Z,61.84
2022-11-01T02:20:15.257Z,61.15
2022-11-01T02:25:46.448Z,60.67
2022-11-01T02:31:04.797Z,61.40
2022-11-01T02:36:16.944Z,60.64
2022-11-01T02:41:25.059Z,61.01
2022-11-01T02:46:49.007Z,60.43
2022-11-01T02:51:55.291Z,59.98
2022-11-01T02:57:01.161Z,60.51
2022-11-01T03:02:09.795Z,59.86
2022-11-01T03:07:17.014Z,59.88
2022-11-01T03:12:26.635Z,59.23
2022-11-01T03:17:34.509Z,58.83
2022-11-01T03:22:44.545Z,59.71
2022-11-01T03:27:49.027Z,59.79
2022-11-01T03:32:56.324Z,59.76
2022-11-01T03:38:07.086Z,59.35
2022-11-01T03:43:15.286Z,59.33
2022-11-01T03:48:18.767Z,59.48
2022-11-01T03:53:24.016Z,59.39
2022-11-01T03:58:42.068Z,59.37
2022-11-01T04:03:46.394Z,59.59
2022-11-01T04:08:51.302Z,59.23
2022-11-01T04:14:14.732Z,59.27
2022-11-01T04:19:35.714Z,59.68
2022-11-01T04:24:40.645Z,59.22
2022-11-01T04:29:43.903Z,58.97
2022-11-01T04:34:47.437Z,58.76
2022-11-01T04:39:52.213Z,59.60
2022-11-01T04:44:55.540Z,59.12
2022-11-01T04:49:59.172Z,59.51
2022-11-01T04:55:04.033Z,59.37
2022-11-01T05:00:11.452Z,59.66
2022-11-01T05:05:15.409Z,59.22
2022-11-01T05:10:20.304Z,58.86
2022-11-01T05:15:23.335Z,58.71
2022-11-01T05:20:26.881Z,58.96
2022-11-01T05:25:34.074Z,59.06
2022-11-01T05:30:40.738Z,59.04
2022-11-01T05:35:44.359Z,58.81
2022-11-01T05:40:49.341Z,58.50
2022-11-01T05:45:52.908Z,58.99
2022-11-01T05:50:56.346Z,58.39
2022-11-01T05:56:01.122Z,57.85
2022-11-01T06:01:07.585Z,58.08
2022-11-01T06:06:12.211Z,57.95
2022-11-01T06:11:17.213Z,57.80
2022-11-01T06:16:20.589Z,58.00
2022-11-01T06:21:27.613Z,57.95
2022-11-01T06:26:34.843Z,57.70
2022-11-01T06:31:38.160Z,57.78
2022-11-01T06:36:41.800Z,57.27
2022-11-01T06:41:46.730Z,57.16
2022-11-01T06:46:49.821Z,56.68
2022-11-01T06:51:53.655Z,57.05
2022-11-01T06:56:59.075Z,57.12
2022-11-01T07:02:02.897Z,56.81
2022-11-01T07:07:06.451Z,56.88
2022-11-01T07:12:11.286Z,56.52
2022-11-01T07:17:14.535Z,56.52
2022-11-01T07:22:18.076Z,56.29
2022-11-01T07:27:22.999Z,56.59
2022-11-01T07:32:26.212Z,56.15
2022-11-01T07:37:31.153Z,55.42
2022-11-01T07:42:41.864Z,55.70
2022-11-01T07:47:45.369Z,55.61
2022-11-01T07:52:48.734Z,55.33
2022-11-01T07:57:53.403Z,55.60
2022-11-01T08:03:02.327Z,55.30
2022-11-01T08:08:06.873Z,55.39
2022-11-01T08:13:17.043Z,54.94
2022-11-01T08:18:22.741Z,55.02
2022-11-01T08:23:26.090Z,54.85
2022-11-01T08:28:30.932Z,54.76
2022-11-01T08:33:34.344Z,54.67
2022-11-01T08:38:37.719Z,54.01
2022-11-01T08:43:42.587Z,53.58
2022-11-01T08:48:48.399Z,52.82
2022-11-01T08:53:51.962Z,52.85
2022-11-01T08:58:58.064Z,52.75
2022-11-01T09:04:01.750Z,52.19
2022-11-01T09:09:05.680Z,51.92
2022-11-01T09:14:10.557Z,51.92
2022-11-01T09:19:13.598Z,51.40
2022-11-01T09:24:18.333Z,51.81
2022-11-01T09:29:23.151Z,51.52
2022-11-01T09:34:29.959Z,51.95
2022-11-01T09:39:33.476Z,51.57
2022-11-01T09:44:42.722Z,50.31
2022-11-01T09:49:49.475Z,51.11
2022-11-01T09:54:53.375Z,51.49
2022-11-01T10:00:07.092Z,51.38
2022-11-01T10:05:43.344Z,50.65
2022-11-01T10:10:53.959Z,51.38
2022-11-01T10:16:06.399Z,49.96
2022-11-01T10:21:16.190Z,50.18
2022-11-01T10:26:23.170Z,51.16
2022-11-01T10:31:30.027Z,51.42
2022-11-01T10:41:50.195Z,50.74
2022-11-01T10:46:55.938Z,50.89
2022-11-01T10:52:06.711Z,50.55
2022-11-01T10:57:15.239Z,51.84
2022-11-01T11:02:27.980Z,50.82
2022-11-01T11:07:32.806Z,51.03
2022-11-01T11:12:37.574Z,51.01
2022-11-01T11:17:45.858Z,51.64
2022-11-01T11:22:49.379Z,51.38
2022-11-01T11:27:54.414Z,51.31
2022-11-01T11:33:00.140Z,51.93
2022-11-01T11:38:05.915Z,52.07
2022-11-01T11:43:31.977Z,51.20
2022-11-01T11:48:48.288Z,51.35
2022-11-01T11:54:11.475Z,51.06
2022-11-01T11:59:23.562Z,51.53
2022-11-01T12:04:33.315Z,51.70
2022-11-01T12:09:44.605Z,52.16
2022-11-01T12:14:48.191Z,51.89
2022-11-01T12:20:00.242Z,52.16
2022-11-01T12:25:08.537Z,51.91
2022-11-01T12:30:18.659Z,52.15
2022-11-01T12:35:36.051Z,51.61
2022-11-01T12:40:41.283Z,52.03
2022-11-01T12:45:51.496Z,52.12
2022-11-01T12:50:59.809Z,52.04
2022-11-01T12:56:03.664Z,51.72
2022-11-01T13:01:21.526Z,52.08
2022-11-01T13:06:49.949Z,51.87
2022-11-01T13:12:01.139Z,52.18
2022-11-01T13:17:14.500Z,52.15
2022-11-01T13:22:26.533Z,52.51
2022-11-01T13:27:38.140Z,52.32
2022-11-01T13:32:50.345Z,52.95
2022-11-01T13:38:01.062Z,52.71
2022-11-01T13:43:11.919Z,52.80
2022-11-01T13:48:29.048Z,52.70
2022-11-01T13:53:38.079Z,53.17
2022-11-01T13:58:42.454Z,53.07
2022-11-01T14:03:49.823Z,53.21
2022-11-01T14:09:29.850Z,53.34
2022-11-01T14:14:53.406Z,53.56
2022-11-01T14:20:29.867Z,53.55
2022-11-01T14:25:36.498Z,53.92
2022-11-01T14:30:43.597Z,54.35
2022-11-01T14:35:51.910Z,54.05
2022-11-01T14:40:58.936Z,53.52
2022-11-01T14:46:05.044Z,54.49
2022-11-01T14:51:17.809Z,53.85
2022-11-01T14:56:24.199Z,54.07
2022-11-01T15:01:27.784Z,54.28
2022-11-01T15:06:32.206Z,54.33
2022-11-01T15:11:37.454Z,54.26
2022-11-01T15:16:44.880Z,54.87
2022-11-01T15:21:50.004Z,54.72
2022-11-01T15:26:55.524Z,54.04
2022-11-01T15:32:01.702Z,54.85
2022-11-01T15:37:12.431Z,54.42
2022-11-01T15:42:18.069Z,54.36
2022-11-01T15:47:24.071Z,55.04
2022-11-01T15:52:31.739Z,54.91
2022-11-01T15:57:42.326Z,54.90
2022-11-01T16:02:49.312Z,54.59
2022-11-01T16:07:53.482Z,55.42
2022-11-01T16:13:01.400Z,55.37
2022-11-01T16:18:17.327Z,55.25
2022-11-01T16:23:28.003Z,55.40
2022-11-01T16:28:40.460Z,55.11
2022-11-01T16:33:45.787Z,55.43
2022-11-01T16:38:51.144Z,55.57
2022-11-01T16:43:58.247Z,55.09
2022-11-01T16:49:05.748Z,55.48
2022-11-01T16:54:10.396Z,55.84
2022-11-01T16:59:26.767Z,55.23
2022-11-01T17:04:30.386Z,55.39
2022-11-01T17:09:35.743Z,54.76
2022-11-01T17:19:57.737Z,54.93
2022-11-01T17:25:01.500Z,55.04
2022-11-01T17:30:07.973Z,55.58
2022-11-01T17:35:12.050Z,55.63
2022-11-01T17:40:20.639Z,56.00
2022-11-01T17:45:30.125Z,56.74
2022-11-01T17:50:33.755Z,56.14
2022-11-01T17:55:37.591Z,56.36
2022-11-01T18:00:44.716Z,56.04
2022-11-01T18:05:48.044Z,55.71
2022-11-01T18:11:04.316Z,56.10
2022-11-01T18:16:23.289Z,55.82
2022-11-01T18:21:33.501Z,55.46
2022-11-01T18:26:36.972Z,55.33
2022-11-01T18:31:45.965Z,56.00
2022-11-01T18:36:54.371Z,56.02
2022-11-01T18:41:57.784Z,56.40
2022-11-01T18:47:09.517Z,56.45
2022-11-01T18:52:17.018Z,56.46
2022-11-01T18:57:24.968Z,56.38
2022-11-01T19:02:31.422Z,56.34
2022-11-01T19:08:04.883Z,56.13
2022-11-01T19:12:59.325Z,56.08
2022-11-01T19:18:13.841Z,55.87
2022-11-01T19:23:20.001Z,56.15
2022-11-01T19:28:27.453Z,56.41
2022-11-01T19:33:37.291Z,56.24
2022-11-01T19:38:45.029Z,56.64
2022-11-01T19:43:49.231Z,56.61
2022-11-01T19:48:54.573Z,56.27
2022-11-01T19:54:00.992Z,56.04
2022-11-01T19:59:05.126Z,56.03
2022-11-01T20:04:27.376Z,56.03
2022-11-01T20:09:35.645Z,56.76
2022-11-01T20:14:38.997Z,56.49
2022-11-01T20:19:45.258Z,56.18
2022-11-01T20:24:48.647Z,56.31
2022-11-01T20:29:52.237Z,56.19
2022-11-01T20:34:58.093Z,56.14
2022-11-01T20:40:01.858Z,56.21
2022-11-01T20:45:07.494Z,56.42
2022-11-01T20:50:17.772Z,55.64
2022-11-01T20:55:21.134Z,56.23
2022-11-01T21:00:24.845Z,56.63
2022-11-01T21:05:31.426Z,56.74
2022-11-01T21:10:36.302Z,56.22
2022-11-01T21:15:40.704Z,56.34
2022-11-01T21:20:47.358Z,55.89
2022-11-01T21:25:51.979Z,55.68
2022-11-01T21:30:55.904Z,56.05
2022-11-01T21:36:00.765Z,56.56
2022-11-01T21:41:09.937Z,56.26
2022-11-01T21:46:17.968Z,55.96
2022-11-01T21:51:22.841Z,56.57
2022-11-01T21:56:25.991Z,55.92
2022-11-01T22:01:31.003Z,56.53
2022-11-01T22:06:35.745Z,56.81
2022-11-01T22:11:39.491Z,57.04
2022-11-01T22:16:43.013Z,57.52
2022-11-01T22:21:47.737Z,57.31
2022-11-01T22:26:51.369Z,57.31
2022-11-01T22:31:54.677Z,57.74
2022-11-01T22:37:00.652Z,58.00
2022-11-01T22:42:04.188Z,57.78
2022-11-01T22:47:07.584Z,58.17
2022-11-01T22:52:21.638Z,58.58
2022-11-01T22:57:29.110Z,58.22
2022-11-01T23:02:34.876Z,58.54
2022-11-01T23:07:43.818Z,58.20
2022-11-01T23:13:05.363Z,58.13
2022-11-01T23:18:19.487Z,58.52
2022-11-01T23:23:25.328Z,57.67
2022-11-01T23:28:29.471Z,58.23
2022-11-01T23:33:36.583Z,57.98
2022-11-01T23:38:45.335Z,58.58
2022-11-01T23:43:49.140Z,58.04
2022-11-01T23:48:58.157Z,58.54
2022-11-01T23:54:03.402Z,58.33
2022-11-01T23:59:07.164Z,57.88
